createdAt,value
2019-02-18T00:03:09.089Z,8.10
2019-02-18T00:08:14.323Z,7.83
2019-02-18T00:13:19.067Z,10.37
2019-02-18T00:18:23.396Z,7.17
2019-02-18T00:23:28.259Z,11.97
2019-02-18T00:28:33.101Z,11.03
2019-02-18T00:33:38.584Z,6.63
2019-02-18T00:38:44.211Z,7.03
2019-02-18T00:43:48.699Z,9.30
2019-02-18T00:48:54.558Z,6.50
2019-02-18T00:54:00.135Z,8.37
2019-02-18T00:59:05.145Z,6.67
2019-02-18T01:04:12.402Z,10.33
2019-02-18T01:09:17.856Z,8.03
2019-02-18T01:14:22.483Z,10.67
2019-02-18T01:19:27.288Z,8.53
2019-02-18T01:24:31.777Z,8.57
2019-02-18T01:29:39.157Z,8.17
2019-02-18T01:34:43.943Z,8.58
2019-02-18T01:39:49.073Z,7.17
2019-02-18T01:44:53.805Z,7.63
2019-02-18T01:49:58.882Z,10.07
2019-02-18T01:55:04.160Z,6.63
2019-02-18T02:00:11.428Z,6.05
2019-02-18T02:05:16.927Z,6.30
2019-02-18T02:10:21.744Z,5.83
2019-02-18T02:15:27.266Z,10.00
2019-02-18T02:20:31.770Z,11.17
2019-02-18T02:25:36.673Z,10.73
2019-02-18T02:30:41.373Z,12.57
2019-02-18T02:35:46.155Z,13.53
2019-02-18T02:40:51.067Z,9.73
2019-02-18T02:45:56.029Z,12.37
2019-02-18T02:51:02.044Z,11.50
2019-02-18T02:56:07.108Z,8.48
2019-02-18T03:01:11.883Z,11.87
2019-02-18T03:06:16.885Z,16.73
2019-02-18T03:11:21.684Z,15.13
2019-02-18T03:16:28.745Z,10.33
2019-02-18T03:21:33.526Z,10.83
2019-02-18T03:26:38.628Z,10.13
2019-02-18T03:31:43.440Z,8.73
2019-02-18T03:36:48.063Z,8.20
2019-02-18T03:41:53.656Z,8.27
2019-02-18T03:46:59.342Z,10.60
2019-02-18T03:52:06.482Z,6.33
2019-02-18T03:57:11.429Z,9.00
2019-02-18T04:02:15.869Z,7.80
2019-02-18T04:07:20.698Z,8.13
2019-02-18T04:12:24.997Z,8.33
2019-02-18T04:17:30.440Z,8.57
2019-02-18T04:22:36.455Z,8.10
2019-02-18T04:27:41.344Z,7.75
2019-02-18T04:32:46.122Z,9.00
2019-02-18T04:37:51.323Z,6.40
2019-02-18T04:42:56.449Z,12.13
2019-02-18T04:48:01.241Z,10.80
2019-02-18T04:53:06.390Z,9.17
2019-02-18T04:58:11.822Z,9.90
2019-02-18T05:03:16.667Z,7.70
2019-02-18T05:08:21.387Z,11.63
2019-02-18T05:13:26.117Z,9.57
2019-02-18T05:18:32.275Z,9.50
2019-02-18T05:23:38.820Z,10.37
2019-02-18T05:28:44.643Z,9.65
2019-02-18T05:33:49.844Z,9.77
2019-02-18T05:38:55.490Z,11.67
2019-02-18T05:44:00.791Z,13.03
2019-02-18T05:49:05.349Z,10.27
2019-02-18T05:54:11.605Z,8.97
2019-02-18T05:59:16.824Z,10.80
2019-02-18T06:04:21.698Z,10.87
2019-02-18T06:09:30.396Z,7.33
2019-02-18T06:14:35.841Z,6.70
2019-02-18T06:19:40.670Z,9.07
2019-02-18T06:24:47.474Z,7.85
2019-02-18T06:29:52.924Z,12.97
2019-02-18T06:34:58.265Z,8.20
2019-02-18T06:40:04.701Z,9.10
2019-02-18T06:45:34.022Z,9.40
2019-02-18T06:50:44.001Z,7.92
2019-02-18T06:55:49.233Z,8.80
2019-02-18T07:01:05.235Z,10.27
2019-02-18T07:06:24.199Z,11.37
2019-02-18T07:11:35.837Z,6.37
2019-02-18T07:16:40.783Z,8.08
2019-02-18T07:21:45.853Z,6.80
2019-02-18T07:26:53.246Z,6.95
2019-02-18T07:31:59.860Z,6.77
2019-02-18T07:37:05.779Z,8.20
2019-02-18T07:42:12.056Z,8.73
2019-02-18T07:47:16.993Z,6.13
2019-02-18T07:52:22.006Z,9.10
2019-02-18T07:57:31.536Z,9.73
2019-02-18T08:02:38.435Z,9.80
2019-02-18T08:07:43.714Z,10.82
2019-02-18T08:12:50.411Z,9.63
2019-02-18T08:17:58.033Z,8.23
2019-02-18T08:23:04.059Z,12.27
2019-02-18T08:28:08.747Z,10.93
2019-02-18T08:33:13.742Z,8.27
2019-02-18T08:38:20.223Z,12.13
2019-02-18T08:43:26.185Z,7.30
2019-02-18T08:48:30.873Z,5.57
2019-02-18T08:53:36.965Z,4.80
2019-02-18T08:58:41.459Z,5.58
2019-02-18T09:03:46.560Z,6.20
2019-02-18T09:08:51.834Z,5.83
2019-02-18T09:13:57.620Z,6.70
2019-02-18T09:19:02.649Z,6.05
2019-02-18T09:24:29.090Z,8.10
2019-02-18T09:29:34.182Z,7.90
2019-02-18T09:34:39.184Z,6.08
2019-02-18T09:39:44.087Z,9.83
2019-02-18T09:44:49.154Z,5.40
2019-02-18T09:49:54.335Z,5.90
2019-02-18T09:54:59.648Z,5.92
2019-02-18T10:00:05.338Z,5.35
2019-02-18T10:05:12.470Z,7.17
2019-02-18T10:10:17.597Z,8.20
2019-02-18T10:15:24.725Z,7.40
2019-02-18T10:20:29.743Z,8.47
2019-02-18T10:25:34.460Z,5.77
2019-02-18T10:30:40.057Z,6.27
2019-02-18T10:35:45.332Z,8.03
2019-02-18T10:40:49.995Z,4.67
2019-02-18T10:45:55.110Z,5.77
2019-02-18T10:51:00.425Z,3.93
2019-02-18T10:56:05.648Z,6.33
2019-02-18T11:01:10.522Z,4.97
2019-02-18T11:06:15.585Z,4.27
2019-02-18T11:11:20.353Z,4.73
2019-02-18T11:16:26.383Z,4.60
2019-02-18T11:21:33.543Z,7.57
2019-02-18T11:26:39.214Z,6.17
2019-02-18T11:31:44.009Z,5.77
2019-02-18T11:36:56.947Z,11.80
2019-02-18T11:42:02.231Z,5.80
2019-02-18T11:47:07.425Z,6.57
2019-02-18T11:52:12.232Z,5.00
2019-02-18T11:57:17.297Z,4.87
2019-02-18T12:02:24.196Z,4.13
2019-02-18T12:07:28.793Z,5.20
2019-02-18T12:12:34.352Z,6.50
2019-02-18T12:17:41.129Z,6.03
2019-02-18T12:22:45.567Z,5.33
2019-02-18T12:27:50.891Z,6.57
2019-02-18T12:32:55.835Z,4.53
2019-02-18T12:38:01.986Z,5.63
2019-02-18T12:43:07.640Z,6.10
2019-02-18T12:48:14.393Z,6.87
2019-02-18T12:53:20.702Z,10.20
2019-02-18T12:58:26.980Z,9.10
2019-02-18T13:03:32.559Z,7.40
2019-02-18T13:08:39.158Z,9.43
2019-02-18T13:13:44.846Z,7.63
2019-02-18T13:18:49.549Z,7.10
2019-02-18T13:23:54.625Z,7.77
2019-02-18T13:29:01.055Z,10.23
2019-02-18T13:34:06.108Z,6.60
2019-02-18T13:39:11.747Z,6.37
2019-02-18T13:44:16.240Z,6.70
2019-02-18T13:49:21.057Z,7.70
2019-02-18T13:54:26.089Z,5.20
2019-02-18T13:59:54.947Z,5.60
2019-02-18T14:04:59.724Z,10.25
2019-02-18T14:10:04.338Z,11.97
2019-02-18T14:15:10.562Z,7.55
2019-02-18T14:20:15.098Z,10.13
2019-02-18T14:25:19.585Z,11.73
2019-02-18T14:30:28.994Z,12.50
2019-02-18T14:35:34.109Z,8.45
2019-02-18T14:40:39.632Z,11.33
2019-02-18T14:45:44.475Z,8.90
2019-02-18T14:50:56.527Z,10.37
2019-02-18T14:55:57.025Z,11.90
2019-02-18T15:01:01.767Z,8.03
2019-02-18T15:06:06.871Z,12.67
2019-02-18T15:11:12.242Z,9.60
2019-02-18T15:16:17.149Z,9.83
2019-02-18T15:21:22.271Z,14.10
2019-02-18T15:26:27.232Z,9.23
2019-02-18T15:31:32.335Z,9.73
2019-02-18T15:36:37.314Z,10.47
2019-02-18T15:41:43.687Z,7.73
2019-02-18T15:46:48.468Z,11.40
2019-02-18T15:51:54.008Z,9.00
2019-02-18T15:56:58.917Z,12.50
2019-02-18T16:02:03.659Z,8.97
2019-02-18T16:07:08.347Z,11.17
2019-02-18T16:12:13.217Z,11.60
2019-02-18T16:17:26.808Z,10.25
2019-02-18T16:22:32.315Z,13.10
2019-02-18T16:27:36.991Z,20.10
2019-02-18T16:32:42.670Z,20.10
2019-02-18T16:37:47.249Z,15.18
2019-02-18T16:42:59.015Z,11.33
2019-02-18T16:48:00.258Z,10.13
2019-02-18T16:53:05.292Z,10.07
2019-02-18T16:58:11.501Z,9.80
2019-02-18T17:03:16.333Z,12.70
2019-02-18T17:08:21.036Z,12.18
2019-02-18T17:13:26.934Z,9.73
2019-02-18T17:18:32.277Z,12.63
2019-02-18T17:23:38.158Z,9.57
2019-02-18T17:28:43.225Z,9.57
2019-02-18T17:33:49.478Z,6.47
2019-02-18T17:38:55.989Z,9.88
2019-02-18T17:44:05.405Z,9.57
2019-02-18T17:49:10.460Z,10.93
2019-02-18T17:54:18.749Z,9.17
2019-02-18T17:59:25.227Z,14.50
2019-02-18T18:04:32.122Z,11.80
2019-02-18T18:09:37.696Z,13.27
2019-02-18T18:14:43.762Z,12.73
2019-02-18T18:19:49.236Z,13.72
2019-02-18T18:24:54.253Z,9.77
2019-02-18T18:29:59.299Z,8.40
2019-02-18T18:35:05.231Z,11.17
2019-02-18T18:40:11.703Z,9.30
2019-02-18T18:45:19.410Z,10.70
2019-02-18T18:50:26.660Z,11.57
2019-02-18T18:55:32.260Z,13.13
2019-02-18T19:00:37.327Z,10.33
2019-02-18T19:05:43.977Z,17.13
2019-02-18T19:10:52.793Z,11.77
2019-02-18T19:16:04.832Z,13.20
2019-02-18T19:21:10.251Z,14.80
2019-02-18T19:26:16.159Z,9.77
2019-02-18T19:31:21.898Z,11.00
2019-02-18T19:36:28.237Z,12.67
2019-02-18T19:41:33.941Z,13.53
2019-02-18T19:51:43.809Z,12.03
2019-02-18T19:56:51.640Z,8.43
2019-02-18T20:01:57.239Z,11.93
2019-02-18T20:07:03.828Z,12.30
2019-02-18T20:12:08.686Z,11.43
2019-02-18T20:17:13.514Z,12.43
2019-02-18T20:22:19.119Z,15.65
2019-02-18T20:27:24.834Z,17.20
2019-02-18T20:32:29.714Z,16.17
2019-02-18T20:37:34.748Z,13.07
2019-02-18T20:42:40.113Z,16.57
2019-02-18T20:47:45.876Z,12.40
2019-02-18T20:52:51.224Z,15.67
2019-02-18T20:57:56.865Z,13.93
2019-02-18T21:03:02.045Z,15.23
2019-02-18T21:08:07.127Z,15.20
2019-02-18T21:13:15.332Z,18.37
2019-02-18T21:18:21.726Z,18.33
2019-02-18T21:23:27.331Z,25.12
2019-02-18T21:28:31.717Z,17.90
2019-02-18T21:33:38.445Z,12.40
2019-02-18T21:38:43.813Z,13.60
2019-02-18T21:43:49.057Z,13.30
2019-02-18T21:48:54.005Z,13.63
2019-02-18T21:53:58.556Z,10.90
2019-02-18T21:59:03.140Z,14.00
2019-02-18T22:04:07.602Z,15.13
2019-02-18T22:09:13.028Z,13.83
2019-02-18T22:14:18.602Z,12.20
2019-02-18T22:19:23.725Z,13.40
2019-02-18T22:24:29.002Z,14.67
2019-02-18T22:29:34.162Z,11.93
2019-02-18T22:34:39.729Z,12.23
2019-02-18T22:39:45.106Z,13.87
2019-02-18T22:44:49.810Z,16.40
2019-02-18T22:49:55.782Z,15.60
2019-02-18T22:55:01.174Z,22.87
2019-02-18T23:00:12.059Z,18.37
2019-02-18T23:05:17.110Z,10.47
2019-02-18T23:10:22.281Z,18.10
2019-02-18T23:15:27.887Z,13.30
2019-02-18T23:20:33.202Z,19.43
2019-02-18T23:25:38.377Z,16.73
2019-02-18T23:30:42.831Z,19.77
2019-02-18T23:35:48.839Z,17.53
2019-02-18T23:40:55.409Z,17.83
2019-02-18T23:46:00.703Z,16.80
2019-02-18T23:51:05.421Z,19.60
2019-02-18T23:56:11.762Z,15.20
